sensor_id;sensor_type;location;lat;lon;timestamp;temperature;humidity
16970;DHT22;8601;48.718;8.992;2023-12-20T00:01:50;5.50;99.90
16970;DHT22;8601;48.718;8.992;2023-12-20T00:04:17;5.60;99.90
16970;DHT22;8601;48.718;8.992;2023-12-20T00:06:49;5.50;99.90
16970;DHT22;8601;48.718;8.992;2023-12-20T00:09:16;5.50;99.90
16970;DHT22;8601;48.718;8.992;2023-12-20T00:11:43;5.50;99.90
16970;DHT22;8601;48.718;8.992;2023-12-20T00:14:13;5.50;99.90
16970;DHT22;8601;48.718;8.992;2023-12-20T00:16:41;5.50;99.90
16970;DHT22;8601;48.718;8.992;2023-12-20T00:19:08;5.50;99.90
16970;DHT22;8601;48.718;8.992;2023-12-20T00:21:35;5.50;99.90
16970;DHT22;8601;48.718;8.992;2023-12-20T00:24:02;5.50;99.90
16970;DHT22;8601;48.718;8.992;2023-12-20T00:26:29;5.50;99.90
16970;DHT22;8601;48.718;8.992;2023-12-20T00:28:56;5.50;99.90
16970;DHT22;8601;48.718;8.992;2023-12-20T00:31:22;5.50;99.90
16970;DHT22;8601;48.718;8.992;2023-12-20T00:33:51;5.50;99.90
16970;DHT22;8601;48.718;8.992;2023-12-20T00:36:17;5.50;99.90
16970;DHT22;8601;48.718;8.992;2023-12-20T00:38:45;5.50;99.90
16970;DHT22;8601;48.718;8.992;2023-12-20T00:41:12;5.40;99.90
16970;DHT22;8601;48.718;8.992;2023-12-20T00:43:38;5.40;99.90
16970;DHT22;8601;48.718;8.992;2023-12-20T00:46:05;5.40;99.90
16970;DHT22;8601;48.718;8.992;2023-12-20T00:48:32;5.40;99.90
16970;DHT22;8601;48.718;8.992;2023-12-20T00:51:00;5.40;99.90
16970;DHT22;8601;48.718;8.992;2023-12-20T00:53:27;5.40;99.90
16970;DHT22;8601;48.718;8.992;2023-12-20T00:55:55;5.30;99.90
16970;DHT22;8601;48.718;8.992;2023-12-20T00:58:24;5.30;99.90
16970;DHT22;8601;48.718;8.992;2023-12-20T01:00:51;5.30;99.90
16970;DHT22;8601;48.718;8.992;2023-12-20T01:03:17;5.30;99.90
16970;DHT22;8601;48.718;8.992;2023-12-20T01:05:44;5.20;99.90
16970;DHT22;8601;48.718;8.992;2023-12-20T01:08:29;5.20;99.90
16970;DHT22;8601;48.718;8.992;2023-12-20T01:10:56;5.20;99.90
16970;DHT22;8601;48.718;8.992;2023-12-20T01:13:23;5.20;99.90
16970;DHT22;8601;48.718;8.992;2023-12-20T01:15:50;5.20;99.90
16970;DHT22;8601;48.718;8.992;2023-12-20T01:18:17;5.10;99.90
16970;DHT22;8601;48.718;8.992;2023-12-20T01:20:43;5.20;99.90
16970;DHT22;8601;48.718;8.992;2023-12-20T01:23:10;5.10;99.90
16970;DHT22;8601;48.718;8.992;2023-12-20T01:25:39;5.20;99.90
16970;DHT22;8601;48.718;8.992;2023-12-20T01:28:05;5.20;99.90
16970;DHT22;8601;48.718;8.992;2023-12-20T01:30:34;5.10;99.90
16970;DHT22;8601;48.718;8.992;2023-12-20T01:33:01;5.10;99.90
16970;DHT22;8601;48.718;8.992;2023-12-20T01:35:32;5.10;99.90
16970;DHT22;8601;48.718;8.992;2023-12-20T01:37:59;5.10;99.90
16970;DHT22;8601;48.718;8.992;2023-12-20T01:40:38;5.10;99.90
16970;DHT22;8601;48.718;8.992;2023-12-20T01:43:07;5.10;99.90
16970;DHT22;8601;48.718;8.992;2023-12-20T01:45:35;5.10;99.90
16970;DHT22;8601;48.718;8.992;2023-12-20T01:48:02;5.10;99.90
16970;DHT22;8601;48.718;8.992;2023-12-20T01:50:31;5.00;99.90
16970;DHT22;8601;48.718;8.992;2023-12-20T01:52:58;5.10;99.90
16970;DHT22;8601;48.718;8.992;2023-12-20T01:55:29;5.10;99.90
16970;DHT22;8601;48.718;8.992;2023-12-20T01:57:58;5.10;99.90
16970;DHT22;8601;48.718;8.992;2023-12-20T02:00:26;5.10;99.90
16970;DHT22;8601;48.718;8.992;2023-12-20T02:02:54;5.10;99.90
16970;DHT22;8601;48.718;8.992;2023-12-20T02:05:21;5.10;99.90
16970;DHT22;8601;48.718;8.992;2023-12-20T02:07:49;5.20;99.90
16970;DHT22;8601;48.718;8.992;2023-12-20T02:10:16;5.20;99.90
16970;DHT22;8601;48.718;8.992;2023-12-20T02:12:43;5.20;99.90
16970;DHT22;8601;48.718;8.992;2023-12-20T02:15:13;5.20;99.90
16970;DHT22;8601;48.718;8.992;2023-12-20T02:17:40;5.20;99.90
16970;DHT22;8601;48.718;8.992;2023-12-20T02:20:07;5.20;99.90
16970;DHT22;8601;48.718;8.992;2023-12-20T02:22:35;5.30;99.90
16970;DHT22;8601;48.718;8.992;2023-12-20T02:25:02;5.30;99.90
16970;DHT22;8601;48.718;8.992;2023-12-20T02:27:29;5.30;99.90
16970;DHT22;8601;48.718;8.992;2023-12-20T02:29:57;5.30;99.90
16970;DHT22;8601;48.718;8.992;2023-12-20T02:32:24;5.30;99.90
16970;DHT22;8601;48.718;8.992;2023-12-20T02:34:54;5.20;99.90
16970;DHT22;8601;48.718;8.992;2023-12-20T02:37:21;5.20;99.90
16970;DHT22;8601;48.718;8.992;2023-12-20T02:39:50;5.20;99.90
16970;DHT22;8601;48.718;8.992;2023-12-20T02:42:17;5.20;99.90
16970;DHT22;8601;48.718;8.992;2023-12-20T02:44:44;5.20;99.90
16970;DHT22;8601;48.718;8.992;2023-12-20T02:47:11;5.20;99.90
16970;DHT22;8601;48.718;8.992;2023-12-20T02:49:37;5.20;99.90
16970;DHT22;8601;48.718;8.992;2023-12-20T02:52:05;5.20;99.90
16970;DHT22;8601;48.718;8.992;2023-12-20T02:54:32;5.20;99.90
16970;DHT22;8601;48.718;8.992;2023-12-20T02:57:00;5.20;99.90
16970;DHT22;8601;48.718;8.992;2023-12-20T02:59:27;5.20;99.90
16970;DHT22;8601;48.718;8.992;2023-12-20T03:01:54;5.20;99.90
16970;DHT22;8601;48.718;8.992;2023-12-20T03:04:25;5.20;99.90
16970;DHT22;8601;48.718;8.992;2023-12-20T03:06:51;5.20;99.90
16970;DHT22;8601;48.718;8.992;2023-12-20T03:09:18;5.10;99.90
16970;DHT22;8601;48.718;8.992;2023-12-20T03:11:45;5.10;99.90
16970;DHT22;8601;48.718;8.992;2023-12-20T03:14:13;5.10;99.90
16970;DHT22;8601;48.718;8.992;2023-12-20T03:16:40;5.10;99.90
16970;DHT22;8601;48.718;8.992;2023-12-20T03:19:07;5.10;99.90
16970;DHT22;8601;48.718;8.992;2023-12-20T03:21:33;5.00;99.90
16970;DHT22;8601;48.718;8.992;2023-12-20T03:24:00;5.00;99.90
16970;DHT22;8601;48.718;8.992;2023-12-20T03:26:27;5.00;99.90
16970;DHT22;8601;48.718;8.992;2023-12-20T03:28:56;5.00;99.90
16970;DHT22;8601;48.718;8.992;2023-12-20T03:31:24;5.00;99.90
16970;DHT22;8601;48.718;8.992;2023-12-20T03:33:51;5.00;99.90
16970;DHT22;8601;48.718;8.992;2023-12-20T03:36:19;5.00;99.90
16970;DHT22;8601;48.718;8.992;2023-12-20T03:38:46;5.00;99.90
16970;DHT22;8601;48.718;8.992;2023-12-20T03:41:14;4.90;99.90
16970;DHT22;8601;48.718;8.992;2023-12-20T03:43:41;4.90;99.90
16970;DHT22;8601;48.718;8.992;2023-12-20T03:46:08;4.90;99.90
16970;DHT22;8601;48.718;8.992;2023-12-20T03:48:36;4.80;99.90
16970;DHT22;8601;48.718;8.992;2023-12-20T03:51:05;4.80;99.90
16970;DHT22;8601;48.718;8.992;2023-12-20T03:53:32;4.70;99.90
16970;DHT22;8601;48.718;8.992;2023-12-20T03:55:59;4.80;99.90
16970;DHT22;8601;48.718;8.992;2023-12-20T03:58:26;4.80;99.90
16970;DHT22;8601;48.718;8.992;2023-12-20T04:00:52;4.70;99.90
16970;DHT22;8601;48.718;8.992;2023-12-20T04:03:19;4.70;99.90
16970;DHT22;8601;48.718;8.992;2023-12-20T04:05:47;4.70;99.90
16970;DHT22;8601;48.718;8.992;2023-12-20T04:08:14;4.70;99.90
16970;DHT22;8601;48.718;8.992;2023-12-20T04:10:41;4.80;99.90
16970;DHT22;8601;48.718;8.992;2023-12-20T04:13:08;4.80;99.90
16970;DHT22;8601;48.718;8.992;2023-12-20T04:15:34;4.70;99.90
16970;DHT22;8601;48.718;8.992;2023-12-20T04:18:01;4.70;99.90
16970;DHT22;8601;48.718;8.992;2023-12-20T04:20:28;4.70;99.90
16970;DHT22;8601;48.718;8.992;2023-12-20T04:22:56;4.70;99.90
16970;DHT22;8601;48.718;8.992;2023-12-20T04:25:23;4.60;99.90
16970;DHT22;8601;48.718;8.992;2023-12-20T04:27:50;4.60;99.90
16970;DHT22;8601;48.718;8.992;2023-12-20T04:30:17;4.60;99.90
16970;DHT22;8601;48.718;8.992;2023-12-20T04:32:44;4.60;99.90
16970;DHT22;8601;48.718;8.992;2023-12-20T04:35:11;4.50;99.90
16970;DHT22;8601;48.718;8.992;2023-12-20T04:37:37;4.60;99.90
16970;DHT22;8601;48.718;8.992;2023-12-20T04:40:07;4.60;99.90
16970;DHT22;8601;48.718;8.992;2023-12-20T04:42:34;4.60;99.90
16970;DHT22;8601;48.718;8.992;2023-12-20T04:45:02;4.60;99.90
16970;DHT22;8601;48.718;8.992;2023-12-20T04:47:29;4.60;99.90
16970;DHT22;8601;48.718;8.992;2023-12-20T04:49:56;4.60;99.90
16970;DHT22;8601;48.718;8.992;2023-12-20T04:52:23;4.60;99.90
16970;DHT22;8601;48.718;8.992;2023-12-20T04:54:49;4.60;99.90
16970;DHT22;8601;48.718;8.992;2023-12-20T04:57:18;4.60;99.90
16970;DHT22;8601;48.718;8.992;2023-12-20T04:59:46;4.50;99.90
16970;DHT22;8601;48.718;8.992;2023-12-20T05:02:12;4.60;99.90
16970;DHT22;8601;48.718;8.992;2023-12-20T05:04:39;4.50;99.90
16970;DHT22;8601;48.718;8.992;2023-12-20T05:07:07;4.50;99.90
16970;DHT22;8601;48.718;8.992;2023-12-20T05:09:33;4.50;99.90
16970;DHT22;8601;48.718;8.992;2023-12-20T05:12:00;4.50;99.90
16970;DHT22;8601;48.718;8.992;2023-12-20T05:14:28;4.50;99.90
16970;DHT22;8601;48.718;8.992;2023-12-20T05:16:56;4.60;99.90
16970;DHT22;8601;48.718;8.992;2023-12-20T05:19:23;4.60;99.90
16970;DHT22;8601;48.718;8.992;2023-12-20T05:21:50;4.60;99.90
16970;DHT22;8601;48.718;8.992;2023-12-20T05:24:17;4.60;99.90
16970;DHT22;8601;48.718;8.992;2023-12-20T05:26:44;4.70;99.90
16970;DHT22;8601;48.718;8.992;2023-12-20T05:29:12;4.70;99.90
16970;DHT22;8601;48.718;8.992;2023-12-20T05:31:40;4.70;99.90
16970;DHT22;8601;48.718;8.992;2023-12-20T05:34:07;4.70;99.90
16970;DHT22;8601;48.718;8.992;2023-12-20T05:36:35;4.70;99.90
16970;DHT22;8601;48.718;8.992;2023-12-20T05:39:02;4.70;99.90
16970;DHT22;8601;48.718;8.992;2023-12-20T05:41:30;4.70;99.90
16970;DHT22;8601;48.718;8.992;2023-12-20T05:43:57;4.70;99.90
16970;DHT22;8601;48.718;8.992;2023-12-20T05:46:26;4.70;99.90
16970;DHT22;8601;48.718;8.992;2023-12-20T05:48:55;4.60;99.90
16970;DHT22;8601;48.718;8.992;2023-12-20T05:51:22;4.60;99.90
16970;DHT22;8601;48.718;8.992;2023-12-20T05:53:49;4.60;99.90
16970;DHT22;8601;48.718;8.992;2023-12-20T05:56:17;4.60;99.90
16970;DHT22;8601;48.718;8.992;2023-12-20T05:58:44;4.60;99.90
16970;DHT22;8601;48.718;8.992;2023-12-20T06:01:11;4.60;99.90
16970;DHT22;8601;48.718;8.992;2023-12-20T06:03:41;4.60;99.90
16970;DHT22;8601;48.718;8.992;2023-12-20T06:06:09;4.70;99.90
16970;DHT22;8601;48.718;8.992;2023-12-20T06:08:36;4.70;99.90
16970;DHT22;8601;48.718;8.992;2023-12-20T06:11:03;4.70;99.90
16970;DHT22;8601;48.718;8.992;2023-12-20T06:13:30;4.70;99.90
16970;DHT22;8601;48.718;8.992;2023-12-20T06:15:57;4.80;99.90
16970;DHT22;8601;48.718;8.992;2023-12-20T06:18:24;4.80;99.90
16970;DHT22;8601;48.718;8.992;2023-12-20T06:20:51;4.80;99.90
16970;DHT22;8601;48.718;8.992;2023-12-20T06:23:19;4.80;99.90
16970;DHT22;8601;48.718;8.992;2023-12-20T06:25:46;4.80;99.90
16970;DHT22;8601;48.718;8.992;2023-12-20T06:28:12;4.80;99.90
16970;DHT22;8601;48.718;8.992;2023-12-20T06:30:40;4.80;99.90
16970;DHT22;8601;48.718;8.992;2023-12-20T06:33:07;4.80;99.90
16970;DHT22;8601;48.718;8.992;2023-12-20T06:35:35;4.80;99.90
16970;DHT22;8601;48.718;8.992;2023-12-20T06:38:02;4.90;99.90
16970;DHT22;8601;48.718;8.992;2023-12-20T06:40:30;4.80;99.90
16970;DHT22;8601;48.718;8.992;2023-12-20T06:42:57;4.80;99.90
16970;DHT22;8601;48.718;8.992;2023-12-20T06:45:26;4.80;99.90
16970;DHT22;8601;48.718;8.992;2023-12-20T06:47:52;4.80;99.90
16970;DHT22;8601;48.718;8.992;2023-12-20T06:50:20;4.80;99.90
16970;DHT22;8601;48.718;8.992;2023-12-20T06:52:47;4.80;99.90
16970;DHT22;8601;48.718;8.992;2023-12-20T06:55:14;4.90;99.90
16970;DHT22;8601;48.718;8.992;2023-12-20T06:57:42;4.80;99.90
16970;DHT22;8601;48.718;8.992;2023-12-20T07:00:11;4.80;99.90
16970;DHT22;8601;48.718;8.992;2023-12-20T07:02:38;4.90;99.90
16970;DHT22;8601;48.718;8.992;2023-12-20T07:05:06;4.90;99.90
16970;DHT22;8601;48.718;8.992;2023-12-20T07:07:34;4.90;99.90
16970;DHT22;8601;48.718;8.992;2023-12-20T07:10:00;4.90;99.90
16970;DHT22;8601;48.718;8.992;2023-12-20T07:12:27;5.00;99.90
16970;DHT22;8601;48.718;8.992;2023-12-20T07:14:57;5.00;99.90
16970;DHT22;8601;48.718;8.992;2023-12-20T07:17:24;5.00;99.90
16970;DHT22;8601;48.718;8.992;2023-12-20T07:19:51;5.00;99.90
16970;DHT22;8601;48.718;8.992;2023-12-20T07:22:18;4.90;99.90
16970;DHT22;8601;48.718;8.992;2023-12-20T07:24:44;5.00;99.90
16970;DHT22;8601;48.718;8.992;2023-12-20T07:27:11;4.90;99.90
16970;DHT22;8601;48.718;8.992;2023-12-20T07:29:38;4.90;99.90
16970;DHT22;8601;48.718;8.992;2023-12-20T07:32:07;4.90;99.90
16970;DHT22;8601;48.718;8.992;2023-12-20T07:34:34;4.90;99.90
16970;DHT22;8601;48.718;8.992;2023-12-20T07:37:00;4.90;99.90
16970;DHT22;8601;48.718;8.992;2023-12-20T07:39:27;4.90;99.90
16970;DHT22;8601;48.718;8.992;2023-12-20T07:41:54;4.90;99.90
16970;DHT22;8601;48.718;8.992;2023-12-20T07:44:21;4.90;99.90
16970;DHT22;8601;48.718;8.992;2023-12-20T07:46:48;4.90;99.90
16970;DHT22;8601;48.718;8.992;2023-12-20T07:49:17;4.80;99.90
16970;DHT22;8601;48.718;8.992;2023-12-20T07:51:43;4.80;99.90
16970;DHT22;8601;48.718;8.992;2023-12-20T07:54:10;4.80;99.90
16970;DHT22;8601;48.718;8.992;2023-12-20T07:56:37;4.70;99.90
16970;DHT22;8601;48.718;8.992;2023-12-20T07:59:05;4.70;99.90
16970;DHT22;8601;48.718;8.992;2023-12-20T08:01:32;4.70;99.90
16970;DHT22;8601;48.718;8.992;2023-12-20T08:03:59;4.70;99.90
16970;DHT22;8601;48.718;8.992;2023-12-20T08:06:27;4.60;99.90
16970;DHT22;8601;48.718;8.992;2023-12-20T08:08:54;4.60;99.90
16970;DHT22;8601;48.718;8.992;2023-12-20T08:11:21;4.60;99.90
16970;DHT22;8601;48.718;8.992;2023-12-20T08:13:47;4.60;99.90
16970;DHT22;8601;48.718;8.992;2023-12-20T08:16:14;4.60;99.90
16970;DHT22;8601;48.718;8.992;2023-12-20T08:18:47;4.60;99.90
16970;DHT22;8601;48.718;8.992;2023-12-20T08:21:14;4.50;99.90
16970;DHT22;8601;48.718;8.992;2023-12-20T08:23:45;4.50;99.90
16970;DHT22;8601;48.718;8.992;2023-12-20T08:26:13;4.50;99.90
16970;DHT22;8601;48.718;8.992;2023-12-20T08:28:40;4.50;99.90
16970;DHT22;8601;48.718;8.992;2023-12-20T08:31:06;4.50;99.90
16970;DHT22;8601;48.718;8.992;2023-12-20T08:33:39;4.50;99.90
16970;DHT22;8601;48.718;8.992;2023-12-20T08:36:06;4.50;99.90
16970;DHT22;8601;48.718;8.992;2023-12-20T08:38:33;4.50;99.90
16970;DHT22;8601;48.718;8.992;2023-12-20T08:41:02;4.60;99.90
16970;DHT22;8601;48.718;8.992;2023-12-20T08:43:30;4.80;99.90
16970;DHT22;8601;48.718;8.992;2023-12-20T08:45:57;4.70;99.90
16970;DHT22;8601;48.718;8.992;2023-12-20T08:48:24;4.60;99.90
16970;DHT22;8601;48.718;8.992;2023-12-20T08:50:51;4.40;99.90
16970;DHT22;8601;48.718;8.992;2023-12-20T08:53:18;4.40;99.90
16970;DHT22;8601;48.718;8.992;2023-12-20T08:55:46;4.30;99.90
16970;DHT22;8601;48.718;8.992;2023-12-20T08:58:14;4.30;99.90
16970;DHT22;8601;48.718;8.992;2023-12-20T09:00:41;4.20;99.90
16970;DHT22;8601;48.718;8.992;2023-12-20T09:03:09;4.10;99.90
16970;DHT22;8601;48.718;8.992;2023-12-20T09:05:35;4.10;99.90
16970;DHT22;8601;48.718;8.992;2023-12-20T09:08:03;4.00;99.90
16970;DHT22;8601;48.718;8.992;2023-12-20T09:10:31;4.10;99.90
16970;DHT22;8601;48.718;8.992;2023-12-20T09:13:04;4.10;99.90
16970;DHT22;8601;48.718;8.992;2023-12-20T09:15:33;4.20;99.90
16970;DHT22;8601;48.718;8.992;2023-12-20T09:18:01;4.20;99.90
16970;DHT22;8601;48.718;8.992;2023-12-20T09:20:31;4.30;99.90
16970;DHT22;8601;48.718;8.992;2023-12-20T09:22:58;4.30;99.90
16970;DHT22;8601;48.718;8.992;2023-12-20T09:25:25;4.30;99.90
16970;DHT22;8601;48.718;8.992;2023-12-20T09:27:52;4.30;99.90
16970;DHT22;8601;48.718;8.992;2023-12-20T09:30:19;4.40;99.90
16970;DHT22;8601;48.718;8.992;2023-12-20T09:32:47;4.40;99.90
16970;DHT22;8601;48.718;8.992;2023-12-20T09:35:14;4.40;99.90
16970;DHT22;8601;48.718;8.992;2023-12-20T09:37:41;4.40;99.90
16970;DHT22;8601;48.718;8.992;2023-12-20T09:40:12;4.50;99.90
16970;DHT22;8601;48.718;8.992;2023-12-20T09:42:46;4.50;99.90
16970;DHT22;8601;48.718;8.992;2023-12-20T09:45:18;4.50;99.90
16970;DHT22;8601;48.718;8.992;2023-12-20T09:47:49;4.50;99.90
16970;DHT22;8601;48.718;8.992;2023-12-20T09:50:17;4.50;99.90
16970;DHT22;8601;48.718;8.992;2023-12-20T09:52:46;4.50;99.90
16970;DHT22;8601;48.718;8.992;2023-12-20T09:55:15;4.80;99.90
16970;DHT22;8601;48.718;8.992;2023-12-20T09:57:43;4.80;99.90
16970;DHT22;8601;48.718;8.992;2023-12-20T10:00:11;4.80;99.90
16970;DHT22;8601;48.718;8.992;2023-12-20T10:02:42;4.80;99.90
16970;DHT22;8601;48.718;8.992;2023-12-20T10:05:16;4.80;99.90
16970;DHT22;8601;48.718;8.992;2023-12-20T10:07:44;4.90;99.90
16970;DHT22;8601;48.718;8.992;2023-12-20T10:10:12;4.80;99.90
16970;DHT22;8601;48.718;8.992;2023-12-20T10:12:39;4.80;99.90
16970;DHT22;8601;48.718;8.992;2023-12-20T10:15:06;4.80;99.90
16970;DHT22;8601;48.718;8.992;2023-12-20T10:17:36;4.80;99.90
16970;DHT22;8601;48.718;8.992;2023-12-20T10:20:04;4.80;99.90
16970;DHT22;8601;48.718;8.992;2023-12-20T10:22:37;4.70;99.90
16970;DHT22;8601;48.718;8.992;2023-12-20T10:25:05;4.80;99.90
16970;DHT22;8601;48.718;8.992;2023-12-20T10:27:32;4.80;99.90
16970;DHT22;8601;48.718;8.992;2023-12-20T10:29:59;4.80;99.90
16970;DHT22;8601;48.718;8.992;2023-12-20T10:32:27;4.70;99.90
16970;DHT22;8601;48.718;8.992;2023-12-20T10:34:55;4.80;99.90
16970;DHT22;8601;48.718;8.992;2023-12-20T10:37:22;5.10;99.90
16970;DHT22;8601;48.718;8.992;2023-12-20T10:39:52;5.40;99.90
16970;DHT22;8601;48.718;8.992;2023-12-20T10:42:22;5.10;99.90
16970;DHT22;8601;48.718;8.992;2023-12-20T10:44:49;5.60;99.90
16970;DHT22;8601;48.718;8.992;2023-12-20T10:47:17;5.30;99.90
16970;DHT22;8601;48.718;8.992;2023-12-20T10:49:45;5.10;99.90
16970;DHT22;8601;48.718;8.992;2023-12-20T10:52:12;5.30;99.90
16970;DHT22;8601;48.718;8.992;2023-12-20T10:54:40;5.10;99.90
16970;DHT22;8601;48.718;8.992;2023-12-20T10:57:08;5.00;99.90
16970;DHT22;8601;48.718;8.992;2023-12-20T10:59:37;5.00;99.90
16970;DHT22;8601;48.718;8.992;2023-12-20T11:02:05;5.00;99.90
16970;DHT22;8601;48.718;8.992;2023-12-20T11:04:38;4.90;99.90
16970;DHT22;8601;48.718;8.992;2023-12-20T11:07:17;4.80;99.90
16970;DHT22;8601;48.718;8.992;2023-12-20T11:09:49;4.90;99.90
16970;DHT22;8601;48.718;8.992;2023-12-20T11:12:23;4.90;99.90
16970;DHT22;8601;48.718;8.992;2023-12-20T11:14:53;4.80;99.90
16970;DHT22;8601;48.718;8.992;2023-12-20T11:17:24;4.90;99.90
16970;DHT22;8601;48.718;8.992;2023-12-20T11:20:07;4.80;99.90
16970;DHT22;8601;48.718;8.992;2023-12-20T11:22:36;4.80;99.90
16970;DHT22;8601;48.718;8.992;2023-12-20T11:25:06;4.90;99.90
16970;DHT22;8601;48.718;8.992;2023-12-20T11:27:36;4.90;99.90
16970;DHT22;8601;48.718;8.992;2023-12-20T11:30:04;4.80;99.90
16970;DHT22;8601;48.718;8.992;2023-12-20T11:32:34;4.80;99.90
16970;DHT22;8601;48.718;8.992;2023-12-20T11:35:18;4.80;99.90
16970;DHT22;8601;48.718;8.992;2023-12-20T11:37:45;4.80;99.90
16970;DHT22;8601;48.718;8.992;2023-12-20T11:40:15;4.70;99.90
16970;DHT22;8601;48.718;8.992;2023-12-20T11:42:45;4.80;99.90
16970;DHT22;8601;48.718;8.992;2023-12-20T11:45:14;4.80;99.90
16970;DHT22;8601;48.718;8.992;2023-12-20T11:47:43;4.80;99.90
16970;DHT22;8601;48.718;8.992;2023-12-20T11:50:10;4.80;99.90
16970;DHT22;8601;48.718;8.992;2023-12-20T11:52:37;4.80;99.90
16970;DHT22;8601;48.718;8.992;2023-12-20T11:55:04;4.70;99.90
16970;DHT22;8601;48.718;8.992;2023-12-20T11:57:33;4.80;99.90
16970;DHT22;8601;48.718;8.992;2023-12-20T12:00:02;4.90;99.90
16970;DHT22;8601;48.718;8.992;2023-12-20T12:02:30;4.80;99.90
16970;DHT22;8601;48.718;8.992;2023-12-20T12:04:57;4.70;99.90
16970;DHT22;8601;48.718;8.992;2023-12-20T12:07:24;4.80;99.90
16970;DHT22;8601;48.718;8.992;2023-12-20T12:09:51;4.80;99.90
16970;DHT22;8601;48.718;8.992;2023-12-20T12:12:19;4.80;99.90
16970;DHT22;8601;48.718;8.992;2023-12-20T12:14:46;4.80;99.90
16970;DHT22;8601;48.718;8.992;2023-12-20T12:17:16;4.80;99.90
16970;DHT22;8601;48.718;8.992;2023-12-20T12:19:43;4.90;99.90
16970;DHT22;8601;48.718;8.992;2023-12-20T12:22:12;4.90;99.90
16970;DHT22;8601;48.718;8.992;2023-12-20T12:24:39;4.90;99.90
16970;DHT22;8601;48.718;8.992;2023-12-20T12:27:06;5.00;99.90
16970;DHT22;8601;48.718;8.992;2023-12-20T12:29:34;4.90;99.90
16970;DHT22;8601;48.718;8.992;2023-12-20T12:32:01;5.00;99.90
16970;DHT22;8601;48.718;8.992;2023-12-20T12:34:30;5.00;99.90
16970;DHT22;8601;48.718;8.992;2023-12-20T12:36:57;5.00;99.90
16970;DHT22;8601;48.718;8.992;2023-12-20T12:39:24;5.00;99.90
16970;DHT22;8601;48.718;8.992;2023-12-20T12:41:51;5.10;99.90
16970;DHT22;8601;48.718;8.992;2023-12-20T12:44:18;5.10;99.90
16970;DHT22;8601;48.718;8.992;2023-12-20T12:46:46;5.20;99.90
16970;DHT22;8601;48.718;8.992;2023-12-20T12:49:15;5.30;99.90
16970;DHT22;8601;48.718;8.992;2023-12-20T12:51:43;5.40;99.90
16970;DHT22;8601;48.718;8.992;2023-12-20T12:54:10;5.40;99.90
16970;DHT22;8601;48.718;8.992;2023-12-20T12:56:39;5.40;99.90
16970;DHT22;8601;48.718;8.992;2023-12-20T12:59:06;5.40;99.90
16970;DHT22;8601;48.718;8.992;2023-12-20T13:01:33;5.40;99.90
16970;DHT22;8601;48.718;8.992;2023-12-20T13:03:59;5.50;99.90
16970;DHT22;8601;48.718;8.992;2023-12-20T13:06:28;5.50;99.90
16970;DHT22;8601;48.718;8.992;2023-12-20T13:08:56;5.50;99.90
16970;DHT22;8601;48.718;8.992;2023-12-20T13:11:23;5.50;99.90
16970;DHT22;8601;48.718;8.992;2023-12-20T13:13:50;5.50;99.90
16970;DHT22;8601;48.718;8.992;2023-12-20T13:16:17;5.50;99.90
16970;DHT22;8601;48.718;8.992;2023-12-20T13:18:44;5.50;99.90
16970;DHT22;8601;48.718;8.992;2023-12-20T13:21:11;5.50;99.90
16970;DHT22;8601;48.718;8.992;2023-12-20T13:23:37;5.60;99.90
16970;DHT22;8601;48.718;8.992;2023-12-20T13:26:07;5.50;99.90
16970;DHT22;8601;48.718;8.992;2023-12-20T13:28:34;6.10;99.90
16970;DHT22;8601;48.718;8.992;2023-12-20T13:31:00;6.50;99.90
16970;DHT22;8601;48.718;8.992;2023-12-20T13:33:27;6.10;99.90
16970;DHT22;8601;48.718;8.992;2023-12-20T13:35:54;5.90;99.90
16970;DHT22;8601;48.718;8.992;2023-12-20T13:38:21;6.50;99.90
16970;DHT22;8601;48.718;8.992;2023-12-20T13:40:48;6.00;99.90
16970;DHT22;8601;48.718;8.992;2023-12-20T13:43:16;5.60;99.90
16970;DHT22;8601;48.718;8.992;2023-12-20T13:45:46;5.50;99.90
16970;DHT22;8601;48.718;8.992;2023-12-20T13:48:13;5.40;99.90
16970;DHT22;8601;48.718;8.992;2023-12-20T13:50:40;5.40;99.90
16970;DHT22;8601;48.718;8.992;2023-12-20T13:53:06;5.30;99.90
16970;DHT22;8601;48.718;8.992;2023-12-20T13:55:33;5.30;99.90
16970;DHT22;8601;48.718;8.992;2023-12-20T13:58:00;5.20;99.90
16970;DHT22;8601;48.718;8.992;2023-12-20T14:00:28;5.10;99.90
16970;DHT22;8601;48.718;8.992;2023-12-20T14:02:55;6.70;99.90
16970;DHT22;8601;48.718;8.992;2023-12-20T14:05:22;7.70;99.90
16970;DHT22;8601;48.718;8.992;2023-12-20T14:07:49;6.50;99.90
16970;DHT22;8601;48.718;8.992;2023-12-20T14:10:16;6.10;99.90
16970;DHT22;8601;48.718;8.992;2023-12-20T14:12:43;5.60;99.90
16970;DHT22;8601;48.718;8.992;2023-12-20T14:15:11;5.40;99.90
16970;DHT22;8601;48.718;8.992;2023-12-20T14:17:40;5.20;99.90
16970;DHT22;8601;48.718;8.992;2023-12-20T14:20:08;5.00;99.90
16970;DHT22;8601;48.718;8.992;2023-12-20T14:22:39;5.00;99.90
16970;DHT22;8601;48.718;8.992;2023-12-20T14:25:10;4.90;99.90
16970;DHT22;8601;48.718;8.992;2023-12-20T14:27:37;4.90;99.90
16970;DHT22;8601;48.718;8.992;2023-12-20T14:30:06;4.80;99.90
16970;DHT22;8601;48.718;8.992;2023-12-20T14:32:35;4.80;99.90
16970;DHT22;8601;48.718;8.992;2023-12-20T14:35:05;4.90;99.90
16970;DHT22;8601;48.718;8.992;2023-12-20T14:37:33;4.80;99.90
16970;DHT22;8601;48.718;8.992;2023-12-20T14:40:03;4.70;99.90
16970;DHT22;8601;48.718;8.992;2023-12-20T14:42:30;4.70;99.90
16970;DHT22;8601;48.718;8.992;2023-12-20T14:44:58;4.60;99.90
16970;DHT22;8601;48.718;8.992;2023-12-20T14:47:28;4.60;99.90
16970;DHT22;8601;48.718;8.992;2023-12-20T14:49:54;4.70;99.90
16970;DHT22;8601;48.718;8.992;2023-12-20T14:52:22;4.60;99.90
16970;DHT22;8601;48.718;8.992;2023-12-20T14:54:50;4.60;99.90
16970;DHT22;8601;48.718;8.992;2023-12-20T14:57:17;4.50;99.90
16970;DHT22;8601;48.718;8.992;2023-12-20T14:59:46;4.40;99.90
16970;DHT22;8601;48.718;8.992;2023-12-20T15:02:19;4.50;99.90
16970;DHT22;8601;48.718;8.992;2023-12-20T15:04:47;4.60;99.90
16970;DHT22;8601;48.718;8.992;2023-12-20T15:07:15;4.50;99.90
16970;DHT22;8601;48.718;8.992;2023-12-20T15:09:47;4.40;99.90
16970;DHT22;8601;48.718;8.992;2023-12-20T15:12:15;4.30;99.90
16970;DHT22;8601;48.718;8.992;2023-12-20T15:14:43;4.30;99.90
16970;DHT22;8601;48.718;8.992;2023-12-20T15:17:10;4.30;99.90
16970;DHT22;8601;48.718;8.992;2023-12-20T15:19:37;4.30;99.90
16970;DHT22;8601;48.718;8.992;2023-12-20T15:22:04;4.60;99.90
16970;DHT22;8601;48.718;8.992;2023-12-20T15:24:32;4.50;99.90
16970;DHT22;8601;48.718;8.992;2023-12-20T15:27:06;4.40;99.90
16970;DHT22;8601;48.718;8.992;2023-12-20T15:29:34;4.40;99.90
16970;DHT22;8601;48.718;8.992;2023-12-20T15:32:00;4.30;99.90
16970;DHT22;8601;48.718;8.992;2023-12-20T15:34:28;4.30;99.90
16970;DHT22;8601;48.718;8.992;2023-12-20T15:36:55;4.20;99.90
16970;DHT22;8601;48.718;8.992;2023-12-20T15:39:22;4.30;99.90
16970;DHT22;8601;48.718;8.992;2023-12-20T15:41:48;4.20;99.90
16970;DHT22;8601;48.718;8.992;2023-12-20T15:44:18;4.30;99.90
16970;DHT22;8601;48.718;8.992;2023-12-20T15:46:47;4.30;99.90
16970;DHT22;8601;48.718;8.992;2023-12-20T15:49:20;4.30;99.90
16970;DHT22;8601;48.718;8.992;2023-12-20T15:51:55;4.20;99.90
16970;DHT22;8601;48.718;8.992;2023-12-20T15:54:23;4.20;99.90
16970;DHT22;8601;48.718;8.992;2023-12-20T15:56:51;4.20;99.90
16970;DHT22;8601;48.718;8.992;2023-12-20T15:59:22;4.20;99.90
16970;DHT22;8601;48.718;8.992;2023-12-20T16:01:49;4.10;99.90
16970;DHT22;8601;48.718;8.992;2023-12-20T16:04:16;4.10;99.90
16970;DHT22;8601;48.718;8.992;2023-12-20T16:06:44;4.00;99.90